Data for 11/06/2010

Time Sea-Level Adjusted Pressure Absolute Pressure Temperature Relative Humidity Dew Point   
(mb) (inHg) (mb) (inHg) (C) (F) (%) (C) (F)
00:05 1017 30.03 846 24.98 11.2 52.2 37 -2.8 26.9
00:10 1017 30.03 846 24.98 11 51.7 39 -2.6 27.4
00:15 1017 30.03 846 24.98 10.6 51.1 39 -2.6 27.2
00:20 1017 30.03 846 24.98 10.3 50.5 41 -2.4 27.6
00:25 1017 30.03 846 24.98 10 49.9 41 -2.5 27.5
00:30 1017 30.03 846 24.98 10.1 50.2 40 -2.7 27.1
00:35 1017 30.03 846 24.98 10.1 50.3 41 -2.6 27.3
00:40 1017 30.03 846 24.98 10 49.9 41 -2.5 27.5
00:45 1017 30.03 846 24.98 10 49.9 41 -2.6 27.2
00:50 1017 30.03 846 24.98 10.3 50.5 40 -2.6 27.4
00:55 1017 30.03 846 24.98 10 50.1 41 -2.4 27.6
01:00 1017 30.03 846 24.98 10 50 41 -2.5 27.5
01:05 1017 30.03 846 24.98 10 49.9 41 -2.7 27.2
01:10 1017 30.03 846 24.98 10 50 41 -2.6 27.3
01:15 1017 30.03 846 24.98 10.2 50.3 39 -3 26.7
01:20 1017 30.03 846 24.98 10.5 50.9 39 -2.8 26.9
01:25 1017 30.03 846 24.98 10.5 50.9 40 -2.5 27.5
01:30 1017 30.03 846 24.98 10.1 50.2 41 -2.7 27.2
01:35 1017 30.03 846 24.98 10.3 50.5 41 -2.5 27.5
01:40 1017 30.03 846 24.98 10.1 50.2 41 -2.5 27.5
01:45 1017 30.03 846 24.98 10.1 50.2 41 -2.4 27.6
01:50 1017 30.03 846 24.98 9.9 49.9 42 -2.4 27.8
01:55 1017 30.03 846 24.98 9.9 49.9 42 -2.4 27.6
02:00 1017 30.03 846 24.98 9.7 49.5 43 -2.4 27.7
02:05 1017 30.03 846 24.98 9.5 49.1 44 -2.1 28.3
02:10 1017 30.03 846 24.98 9.6 49.3 43 -2.5 27.5
02:15 1017 30.03 846 24.98 9.7 49.4 43 -2.3 27.9
02:20 1017 30.03 846 24.98 9.7 49.5 42 -2.4 27.6
02:25 1017 30.03 846 24.98 10 49.9 42 -2.2 28
02:30 1017 30.03 846 24.98 9.9 49.8 42 -2.4 27.8
02:35 1017 30.03 846 24.98 10 49.9 42 -2.5 27.6
02:40 1017 30.03 846 24.98 10.3 50.5 41 -2.3 27.9
02:45 1017 30.03 846 24.98 10 49.9 43 -2.1 28.3
02:50 1017 30.03 846 24.98 9.8 49.7 42 -2.4 27.7
02:55 1017 30.03 847 25.01 10.1 50.1 42 -2.4 27.7
03:00 1017 30.03 847 25.01 10.1 50.1 43 -2 28.4
03:05 1017 30.03 847 25.01 9.7 49.4 43 -2.2 28
03:10 1017 30.03 847 25.01 10.1 50.2 42 -2.2 28
03:15 1017 30.03 847 25.01 10.1 50.2 42 -2.3 27.9
03:20 1017 30.03 847 25.01 10.2 50.4 43 -1.6 29.1
03:25 1017 30.03 847 25.01 9.5 49.1 45 -1.7 28.9
03:30 1017 30.03 847 25.01 9.9 49.8 43 -2 28.5
03:35 1017 30.03 847 25.01 9.5 49 48 -0.9 30.3
03:40 1017 30.03 847 25.01 8.9 48 47 -1.8 28.7
03:45 1017 30.03 847 25.01 8.9 48 50 -1 30.2
03:50 1017 30.03 847 25.01 8.2 46.8 51 -1.3 29.6
03:55 1017 30.03 847 25.01 7.9 46.2 52 -1.2 29.8
04:00 1017 30.03 847 25.01 7.5 45.6 54 -1.3 29.7
04:05 1017 30.03 847 25.01 7.5 45.5 52 -1.8 28.7
04:10 1017 30.03 846 24.98 9 48.2 45 -2.4 27.7
04:15 1017 30.03 846 24.98 9.7 49.4 46 -1.5 29.3
04:20 1017 30.03 846 24.98 8.9 48 50 -1.1 30.1
04:25 1017 30.03 846 24.98 8.7 47.7 47 -2 28.4
04:30 1017 30.03 846 24.98 9.2 48.6 46 -1.8 28.8
04:35 1017 30.03 846 24.98 9.9 49.8 43 -2 28.3
04:40 1017 30.03 846 24.98 10.4 50.8 43 -1.6 29.1
04:45 1017 30.03 847 25.01 10.2 50.4 45 -1.2 29.9
04:50 1017 30.03 846 24.98 9.6 49.3 46 -1.4 29.5
04:55 1017 30.03 846 24.98 9.8 49.6 46 -1.3 29.7
05:00 1017 30.03 847 25.01 9 48.2 49 -1 30.1
05:05 1017 30.03 847 25.01 8.8 47.8 48 -1.8 28.8
05:10 1017 30.03 847 25.01 9.7 49.5 43 -2.2 28.1
05:15 1017 30.03 847 25.01 10.8 51.5 43 -1.3 29.7
05:20 1017 30.03 847 25.01 10.1 50.2 45 -1.2 29.9
05:25 1017 30.03 847 25.01 9.8 49.6 44 -1.8 28.7
05:30 1018 30.06 847 25.01 9.9 49.8 45 -1.3 29.6
05:35 1018 30.06 847 25.01 9.7 49.5 45 -1.5 29.3
05:40 1018 30.06 847 25.01 9.9 49.9 45 -1.4 29.6
05:45 1018 30.06 847 25.01 9.6 49.2 48 -0.8 30.6
05:50 1018 30.06 847 25.01 8.6 47.5 51 -1 30.1
05:55 1018 30.06 847 25.01 8.5 47.3 49 -1.6 29.2
06:00 1018 30.06 847 25.01 9.1 48.4 48 -1.3 29.7
06:05 1018 30.06 847 25.01 8.9 48.1 48 -1.6 29.1
06:10 1017 30.03 847 25.01 9.2 48.6 47 -1.6 29.1
06:15 1018 30.06 847 25.01 9.8 49.6 45 -1.7 29
06:20 1018 30.06 847 25.01 9.9 49.8 45 -1.6 29.2
06:25 1018 30.06 847 25.01 10.6 51 41 -2.1 28.3
06:30 1017 30.03 847 25.01 10.5 51 44 -1.1 30.1
06:35 1017 30.03 847 25.01 9.9 49.8 46 -1.2 29.8
06:40 1018 30.06 847 25.01 9.6 49.3 47 -1.2 29.8
06:45 1018 30.06 847 25.01 9 48.1 49 -1.1 29.9
06:50 1018 30.06 847 25.01 8.8 47.8 48 -1.5 29.4
06:55 1018 30.06 847 25.01 8.8 47.8 50 -1.1 30.1
07:00 1017 30.03 847 25.01 8.5 47.3 50 -1.2 29.8
07:05 1017 30.03 847 25.01 8.3 47 50 -1.4 29.5
07:10 1017 30.03 847 25.01 9 48.2 47 -1.6 29.2
07:15 1018 30.06 847 25.01 9.2 48.6 48 -1.1 30
07:20 1018 30.06 847 25.01 8.9 48.1 49 -1.2 29.8
07:25 1018 30.06 847 25.01 9.2 48.6 46 -1.7 28.9
07:30 1018 30.06 847 25.01 10.2 50.3 44 -1.4 29.5
07:35 1018 30.06 847 25.01 10.3 50.5 44 -1.3 29.7
07:40 1018 30.06 847 25.01 10.2 50.4 44 -1.4 29.5
07:45 1018 30.06 847 25.01 10.3 50.6 44 -1.3 29.7
07:50 1018 30.06 847 25.01 10 50.1 46 -1 30.2
07:55 1018 30.06 847 25.01 9.7 49.4 46 -1.3 29.7
08:00 1018 30.06 847 25.01 9.3 48.8 48 -1 30.2
08:05 1018 30.06 847 25.01 8.8 47.8 49 -1.4 29.6
08:10 1018 30.06 847 25.01 9.9 49.8 44 -1.7 28.9
08:15 1018 30.06 847 25.01 9.8 49.6 48 -0.7 30.8
08:20 1018 30.06 847 25.01 9.1 48.4 48 -1.2 29.8
08:25 1018 30.06 847 25.01 8.9 47.9 50 -1 30.1
08:30 1018 30.06 847 25.01 8.7 47.7 48 -1.7 29
08:35 1018 30.06 847 25.01 9.9 49.7 45 -1.4 29.6
08:40 1018 30.06 847 25.01 9.9 49.9 47 -0.9 30.3
08:45 1018 30.06 847 25.01 9.2 48.6 49 -0.8 30.5
08:50 1018 30.06 847 25.01 8.5 47.4 51 -0.9 30.4
08:55 1018 30.06 847 25.01 8.4 47.1 50 -1.3 29.6
09:00 1018 30.06 847 25.01 8.6 47.6 50 -1 30.1
09:05 1018 30.06 847 25.01 8.6 47.4 51 -0.9 30.3
09:10 1018 30.06 847 25.01 8.7 47.6 51 -0.9 30.4
09:15 1018 30.06 847 25.01 9.1 48.3 50 -0.7 30.8
09:20 1017 30.03 847 25.01 9.3 48.7 51 -0.4 31.2
09:25 1017 30.03 847 25.01 9.3 48.7 51 -0.2 31.6
09:30 1017 30.03 847 25.01 9.4 48.9 51 -0.2 31.7
09:35 1017 30.03 847 25.01 9.5 49.1 51 -0.2 31.6
09:40 1017 30.03 847 25.01 9.7 49.4 50 -0.3 31.5
09:45 1017 30.03 847 25.01 9.9 49.8 49 -0.2 31.7
09:50 1018 30.06 847 25.01 10.2 50.4 48 -0.2 31.7
09:55 1018 30.06 847 25.01 10.6 51.1 47 -0.1 31.8
10:00 1017 30.03 847 25.01 10.7 51.3 47 -0.2 31.6
10:05 1017 30.03 847 25.01 11.2 52.2 45 -0.1 31.9
10:10 1017 30.03 847 25.01 11.7 53.1 43 -0.3 31.4
10:15 1017 30.03 847 25.01 12.5 54.4 41 -0.4 31.3
10:20 1018 30.06 847 25.01 13 55.5 40 -0.2 31.6
10:25 1018 30.06 847 25.01 13.3 56 39 -0.1 31.8
10:30 1018 30.06 847 25.01 13.6 56.5 39 -0.2 31.7
10:35 1018 30.06 847 25.01 14 57.2 38 -0.2 31.7
10:40 1018 30.06 847 25.01 14.3 57.8 38 0.2 32.3
10:45 1018 30.06 847 25.01 14.4 58 37 0 32.1
10:50 1018 30.06 847 25.01 14.9 58.8 36 0.1 32.1
10:55 1018 30.06 847 25.01 15.2 59.4 35 0 32.1
11:00 1017 30.03 847 25.01 15.7 60.3 34 0.2 32.3
11:05 1017 30.03 847 25.01 16.3 61.4 34 0.5 32.9
11:10 1017 30.03 847 25.01 16.1 61.1 34 0.5 32.9
11:15 1017 30.03 847 25.01 15 58.9 35 -0.2 31.6
11:20 1017 30.03 847 25.01 14.7 58.4 35 -0.7 30.7
11:25 1017 30.03 847 25.01 14.3 57.8 37 -0.2 31.7
11:30 1017 30.03 847 25.01 14.5 58 37 0 32.1
11:35 1017 30.03 847 25.01 14.5 58.1 37 0.1 32.1
11:40 1017 30.03 846 24.98 15 59 39 1.1 34
11:45 1017 30.03 846 24.98 15.1 59.1 35 -0.1 31.7
11:50 1017 30.03 846 24.98 15.4 59.7 35 0.2 32.4
11:55 1017 30.03 846 24.98 15.8 60.5 33 -0.3 31.5
12:00 1017 30.03 846 24.98 15.9 60.5 33 -0.3 31.5
12:05 1017 30.03 846 24.98 15.9 60.7 32 -0.4 31.2
12:10 1017 30.03 846 24.98 16 60.8 33 -0 31.9
12:15 1017 30.03 846 24.98 16.8 62.2 31 -0.3 31.5
12:20 1017 30.03 846 24.98 17 62.5 31 -0.1 31.9
12:25 1017 30.03 846 24.98 16.9 62.3 31 -0.5 31.1
12:30 1017 30.03 846 24.98 17.4 63.3 30 -0.4 31.3
12:35 1017 30.03 846 24.98 18 64.5 30 0.3 32.5
12:40 1017 30.03 846 24.98 17.7 63.9 30 -0.1 31.9
12:45 1016 30 846 24.98 18 64.3 29 -0.2 31.6
12:50 1016 30 846 24.98 18.6 65.6 28 -0.3 31.4
12:55 1016 30 846 24.98 18.8 65.8 30 0.8 33.5
13:00 1016 30 845 24.95 18.9 66.1 28 0.1 32.1
13:05 1016 30 845 24.95 19.3 66.7 28 0.3 32.5
13:10 1016 30 845 24.95 19.1 66.4 28 0.1 32.3
13:15 1016 30 845 24.95 19.6 67.3 27 0.4 32.8
13:20 1016 30 845 24.95 20.6 69.1 25 0.1 32.1
13:25 1016 30 845 24.95 20.2 68.3 26 0.1 32.2
13:30 1016 30 845 24.95 20.2 68.3 27 0.6 33.1
13:35 1016 30 845 24.95 19.6 67.3 27 0 32
13:40 1015 29.97 845 24.95 19.8 67.7 26 -0 31.9
13:45 1016 30 845 24.95 20.5 69 26 0.7 33.3
13:50 1015 29.97 845 24.95 20.6 69.1 26 0.6 33
13:55 1015 29.97 845 24.95 20.7 69.3 25 0.4 32.7
14:00 1015 29.97 845 24.95 21.1 70 25 0.6 33
14:05 1015 29.97 844 24.92 20.4 68.7 26 0.4 32.7
14:10 1015 29.97 844 24.92 20.7 69.2 26 0.7 33.2
14:15 1015 29.97 844 24.92 20 68 26 0.3 32.5
14:20 1015 29.97 844 24.92 19.9 67.8 26 -0.2 31.6
14:25 1015 29.97 844 24.92 20 67.9 26 -0.2 31.7
14:30 1015 29.97 844 24.92 19.9 67.9 26 0.2 32.3
14:35 1015 29.97 844 24.92 19.9 67.8 26 0 32
14:40 1015 29.97 844 24.92 19.8 67.6 26 -0.1 31.8
14:45 1015 29.97 844 24.92 19.9 67.7 26 0.1 32.2
14:50 1015 29.97 844 24.92 19.8 67.7 27 0.3 32.5
14:55 1015 29.97 844 24.92 19.9 67.7 25 -0.4 31.2
15:00 1015 29.97 844 24.92 19.8 67.7 26 -0.2 31.6
15:05 1015 29.97 844 24.92 19.9 67.8 25 -0.5 31.1
15:10 1015 29.97 844 24.92 20.1 68.1 25 -0.4 31.2
15:15 1015 29.97 844 24.92 20.1 68.3 24 -0.6 30.9
15:20 1015 29.97 844 24.92 20.1 68.2 27 0.5 32.9
15:25 1015 29.97 844 24.92 20.1 68.1 28 1 33.7
15:30 1015 29.97 844 24.92 20 68.1 29 1.4 34.6
15:35 1015 29.97 844 24.92 19.5 67.2 31 2.1 35.8
15:40 1015 29.97 844 24.92 19.1 66.4 30 1.4 34.4
15:45 1015 29.97 844 24.92 18.9 65.9 30 1.2 34.1
15:50 1015 29.97 844 24.92 18.7 65.7 30 1 33.8
15:55 1015 29.97 844 24.92 18.8 65.8 30 0.9 33.7
16:00 1015 29.97 844 24.92 18.8 65.8 30 1.2 34.2
16:05 1015 29.97 844 24.92 18.6 65.5 31 1.2 34.1
16:10 1015 29.97 844 24.92 18.5 65.3 31 1 33.9
16:15 1015 29.97 844 24.92 18.6 65.5 31 1.3 34.4
16:20 1015 29.97 844 24.92 18.2 64.7 32 1.4 34.5
16:25 1015 29.97 844 24.92 18 64.3 31 0.9 33.7
16:30 1015 29.97 844 24.92 18.3 65 29 0.2 32.3
16:35 1015 29.97 844 24.92 18.7 65.7 29 0.3 32.5
16:40 1015 29.97 844 24.92 19 66.1 30 1 33.8
16:45 1015 29.97 844 24.92 19 66.3 31 1.5 34.7
16:50 1015 29.97 844 24.92 19.1 66.3 29 0.9 33.5
16:55 1015 29.97 844 24.92 19.4 66.9 26 -0.4 31.4
17:00 1014 29.94 844 24.92 19.5 67.1 25 -0.7 30.7
17:05 1014 29.94 844 24.92 19.6 67.2 27 0 32
17:10 1015 29.97 844 24.92 19.4 66.9 27 0.2 32.3
17:15 1015 29.97 844 24.92 19 66.2 27 -0.2 31.7
17:20 1014 29.94 844 24.92 18.8 65.9 28 0.3 32.5
17:25 1015 29.97 844 24.92 18.6 65.6 28 -0.1 31.8
17:30 1015 29.97 844 24.92 18.5 65.4 28 -0.2 31.6
17:35 1015 29.97 844 24.92 18.4 65.2 29 0 32.1
17:40 1015 29.97 844 24.92 18.3 64.9 28 -0.5 31.2
17:45 1015 29.97 844 24.92 18.3 65 28 -0.3 31.5
17:50 1015 29.97 844 24.92 18.1 64.6 27 -1.1 30
17:55 1015 29.97 844 24.92 18.1 64.6 27 -1 30.3
18:00 1015 29.97 844 24.92 18.5 65.2 26 -1 30.2
18:05 1014 29.94 844 24.92 18.3 64.9 27 -0.8 30.5
18:10 1015 29.97 844 24.92 18 64.5 29 -0.1 31.9
18:15 1015 29.97 844 24.92 17.6 63.8 28 -1.1 30
18:20 1015 29.97 844 24.92 17.9 64.1 28 -0.6 30.9
18:25 1015 29.97 844 24.92 17.8 64.1 29 -0.5 31.1
18:30 1015 29.97 844 24.92 17.4 63.3 29 -0.5 31.1
18:35 1015 29.97 844 24.92 17 62.5 31 -0.2 31.7
18:40 1015 29.97 844 24.92 16.7 62.1 30 -1 30.1
18:45 1015 29.97 844 24.92 16.7 62 33 0.5 33
18:50 1015 29.97 844 24.92 16.5 61.7 29 -1.3 29.7
18:55 1015 29.97 844 24.92 16.5 61.8 29 -1.3 29.7
19:00 1015 29.97 844 24.92 16.7 62.1 28 -1.5 29.2
19:05 1015 29.97 844 24.92 16.7 62 29 -1.4 29.5
19:10 1015 29.97 844 24.92 16.6 61.8 28 -1.9 28.6
19:15 1015 29.97 844 24.92 16.6 61.9 27 -2.3 27.8
19:20 1015 29.97 844 24.92 16.6 61.8 27 -2.4 27.7
19:25 1015 29.97 845 24.95 16.5 61.7 27 -2.6 27.2
19:30 1015 29.97 845 24.95 16.5 61.7 27 -2.5 27.5
19:35 1015 29.97 845 24.95 16.3 61.3 27 -2.5 27.5
19:40 1016 30 845 24.95 16.1 61 28 -2.1 28.2
19:45 1016 30 845 24.95 15.8 60.5 30 -1.8 28.7
19:50 1016 30 845 24.95 15.7 60.2 30 -1.7 28.9
19:55 1016 30 845 24.95 15.6 60 30 -2.1 28.3
20:00 1016 30 845 24.95 15.7 60.2 30 -1.7 28.9
20:05 1016 30 845 24.95 15.6 60.2 30 -1.7 28.9
20:10 1016 30 845 24.95 15.7 60.2 30 -1.7 28.9
20:15 1016 30 845 24.95 15.7 60.3 33 -0.3 31.4
20:20 1016 30 845 24.95 15.9 60.5 32 -0.8 30.6
20:25 1016 30 845 24.95 15.1 59.2 37 0.7 33.3
20:30 1016 30 845 24.95 14.3 57.7 42 1.7 35
20:35 1016 30 845 24.95 13.8 56.8 44 1.9 35.3
20:40 1016 30 845 24.95 13.6 56.5 44 1.8 35.3
20:45 1016 30 845 24.95 13.5 56.3 46 2.3 36.1
20:50 1016 30 845 24.95 13.5 56.2 47 2.5 36.5
20:55 1016 30 845 24.95 13.6 56.5 47 2.7 36.9
21:00 1016 30 845 24.95 13.7 56.6 48 2.8 37.1
21:05 1016 30 845 24.95 13.7 56.6 48 2.9 37.2
21:10 1016 30 846 24.98 13.8 56.8 48 3 37.5
21:15 1016 30 846 24.98 13.8 56.9 48 3.1 37.6
21:20 1016 30 846 24.98 13.9 57 47 2.9 37.1
21:25 1016 30 846 24.98 13.9 57 47 2.8 37.1
21:30 1016 30 846 24.98 13.9 57.1 47 2.7 36.9
21:35 1016 30 846 24.98 13.9 57.1 47 2.9 37.3
21:40 1017 30.03 846 24.98 14 57.2 48 3.1 37.6
21:45 1017 30.03 846 24.98 13.9 57.1 48 3.1 37.6
21:50 1017 30.03 846 24.98 13.9 57 47 2.9 37.2
21:55 1017 30.03 846 24.98 13.9 56.9 48 3.1 37.7
22:00 1017 30.03 846 24.98 13.8 56.8 50 3.5 38.3
22:05 1017 30.03 846 24.98 13.6 56.5 48 2.9 37.2
22:10 1017 30.03 846 24.98 13.5 56.2 53 4.2 39.5
22:15 1017 30.03 846 24.98 13.4 56.1 49 3 37.3
22:20 1017 30.03 846 24.98 13.4 56.1 49 3 37.5
22:25 1017 30.03 846 24.98 13.2 55.7 51 3.3 37.9
22:30 1017 30.03 846 24.98 13.2 55.7 50 3.1 37.5
22:35 1017 30.03 846 24.98 12.8 55 51 2.9 37.3
22:40 1017 30.03 846 24.98 12.7 54.8 51 2.9 37.2
22:45 1017 30.03 846 24.98 12.4 54.4 55 3.8 38.8
22:50 1017 30.03 846 24.98 12.2 54 57 4 39.2
22:55 1017 30.03 846 24.98 12.1 53.9 60 4.7 40.5
23:00 1016 30 846 24.98 12.2 54 52 2.8 37
23:05 1016 30 846 24.98 12 53.6 53 2.7 36.9
23:10 1016 30 845 24.95 11.9 53.5 51 2.3 36.1
23:15 1016 30 845 24.95 11.9 53.5 53 2.8 37.1
23:20 1016 30 845 24.95 11.5 52.7 55 2.7 36.9
23:25 1016 30 845 24.95 11.1 52 56 2.7 36.8
23:30 1016 30 845 24.95 10.5 50.8 60 3 37.4
23:35 1016 30 845 24.95 9.8 49.6 58 2.1 35.7
23:40 1016 30 845 24.95 10.2 50.3 55 1.7 35.1
23:45 1016 30 845 24.95 10.7 51.2 54 1.7 35.1
23:50 1016 30 845 24.95 11.1 51.9 52 1.6 34.9
23:55 1016 30 845 24.95 11.6 52.8 51 1.8 35.3
24:00 1016 30 845 24.95 11.6 52.8 51 1.9 35.4